createdAt,value
2018-11-22T00:02:17.529Z,59.70
2018-11-22T00:04:51.720Z,64.53
2018-11-22T00:07:25.951Z,58.57
2018-11-22T00:09:59.287Z,64.87
2018-11-22T00:12:32.594Z,62.50
2018-11-22T00:15:11.091Z,64.70
2018-11-22T00:17:45.047Z,61.23
2018-11-22T00:20:18.386Z,64.97
2018-11-22T00:22:51.668Z,59.63
2018-11-22T00:25:25.217Z,63.33
2018-11-22T00:27:58.533Z,66.70
2018-11-22T00:30:31.999Z,58.73
2018-11-22T00:33:05.389Z,63.23
2018-11-22T00:35:38.705Z,62.73
2018-11-22T00:38:12.905Z,64.00
2018-11-22T00:40:46.327Z,68.93
2018-11-22T00:43:19.670Z,62.50
2018-11-22T00:45:53.044Z,65.57
2018-11-22T00:48:26.365Z,68.50
2018-11-22T00:50:59.637Z,64.43
2018-11-22T00:53:32.945Z,65.73
2018-11-22T00:56:06.434Z,66.97
2018-11-22T00:58:39.761Z,64.40
2018-11-22T01:01:13.107Z,62.93
2018-11-22T01:03:46.600Z,65.53
2018-11-22T01:06:19.929Z,57.17
2018-11-22T01:08:53.389Z,67.87
2018-11-22T01:11:26.747Z,65.57
2018-11-22T01:14:00.092Z,68.83
2018-11-22T01:16:33.377Z,59.70
2018-11-22T01:19:07.289Z,61.40
2018-11-22T01:21:40.553Z,64.57
2018-11-22T01:24:13.937Z,63.60
2018-11-22T01:26:47.141Z,67.20
2018-11-22T01:29:20.471Z,62.77
2018-11-22T01:31:53.806Z,67.00
2018-11-22T01:34:27.087Z,66.77
2018-11-22T01:37:00.434Z,69.20
2018-11-22T01:39:33.816Z,68.53
2018-11-22T01:42:07.210Z,65.17
2018-11-22T01:44:40.761Z,65.03
2018-11-22T01:47:14.066Z,64.63
2018-11-22T01:49:47.436Z,66.00
2018-11-22T01:52:20.739Z,64.20
2018-11-22T01:54:54.034Z,64.97
2018-11-22T01:57:27.534Z,70.40
2018-11-22T02:00:00.804Z,59.97
2018-11-22T02:02:34.199Z,67.47
2018-11-22T02:05:10.918Z,66.30
2018-11-22T02:07:44.298Z,72.37
2018-11-22T02:10:18.667Z,65.23
2018-11-22T02:12:52.026Z,66.83
2018-11-22T02:15:26.824Z,62.00
2018-11-22T02:18:00.272Z,68.27
2018-11-22T02:20:33.614Z,64.00
2018-11-22T02:23:07.349Z,68.23
2018-11-22T02:25:40.610Z,66.23
2018-11-22T02:28:14.947Z,68.03
2018-11-22T02:30:48.303Z,67.40
2018-11-22T02:33:21.610Z,69.37
2018-11-22T02:35:54.962Z,66.67
2018-11-22T02:38:28.295Z,63.40
2018-11-22T02:41:01.595Z,63.90
2018-11-22T02:43:34.912Z,65.47
2018-11-22T02:46:08.232Z,70.50
2018-11-22T02:48:41.711Z,69.10
2018-11-22T02:51:15.040Z,66.97
2018-11-22T02:53:48.330Z,64.43
2018-11-22T02:56:21.774Z,69.90
2018-11-22T02:58:55.151Z,62.47
2018-11-22T03:01:28.450Z,64.63
2018-11-22T03:04:01.792Z,68.63
2018-11-22T03:06:35.236Z,69.23
2018-11-22T03:09:12.625Z,64.20
2018-11-22T03:11:45.963Z,70.60
2018-11-22T03:14:19.250Z,69.33
2018-11-22T03:16:52.531Z,66.73
2018-11-22T03:19:25.870Z,67.33
2018-11-22T03:21:59.175Z,64.40
2018-11-22T03:24:32.511Z,65.23
2018-11-22T03:27:06.074Z,71.90
2018-11-22T03:29:39.372Z,64.47
2018-11-22T03:32:12.897Z,67.70
2018-11-22T03:34:46.232Z,69.50
2018-11-22T03:37:19.598Z,66.70
2018-11-22T03:39:53.188Z,71.53
2018-11-22T03:42:26.552Z,73.37
2018-11-22T03:44:59.854Z,70.00
2018-11-22T03:47:33.268Z,74.53
2018-11-22T03:50:08.657Z,68.87
2018-11-22T03:52:42.633Z,69.40
2018-11-22T03:55:17.673Z,67.83
2018-11-22T03:57:52.364Z,66.80
2018-11-22T04:00:29.868Z,77.77
2018-11-22T04:03:03.370Z,72.70
2018-11-22T04:05:36.896Z,64.63
2018-11-22T04:08:10.260Z,71.23
2018-11-22T04:10:43.619Z,73.37
2018-11-22T04:13:16.938Z,71.43
2018-11-22T04:15:50.306Z,64.77
2018-11-22T04:18:23.664Z,73.63
2018-11-22T04:20:57.011Z,73.00
2018-11-22T04:23:30.386Z,70.87
2018-11-22T04:26:03.685Z,71.00
2018-11-22T04:28:37.897Z,72.03
2018-11-22T04:31:11.212Z,73.37
2018-11-22T04:33:44.643Z,67.90
2018-11-22T04:36:18.049Z,68.87
2018-11-22T04:38:51.344Z,71.83
2018-11-22T04:41:24.667Z,71.73
2018-11-22T04:43:58.004Z,68.17
2018-11-22T04:46:31.339Z,75.80
2018-11-22T04:49:04.766Z,74.67
2018-11-22T04:51:38.012Z,66.70
2018-11-22T04:54:11.356Z,70.47
2018-11-22T04:56:44.623Z,66.50
2018-11-22T04:59:17.907Z,67.00
2018-11-22T05:01:51.393Z,65.33
2018-11-22T05:04:30.600Z,71.50
2018-11-22T05:06:58.215Z,67.17
2018-11-22T05:09:31.518Z,69.07
2018-11-22T05:12:04.906Z,68.17
2018-11-22T05:14:38.255Z,69.47
2018-11-22T05:17:11.700Z,72.30
2018-11-22T05:19:45.007Z,71.07
2018-11-22T05:22:18.383Z,73.20
2018-11-22T05:24:51.773Z,66.97
2018-11-22T05:27:25.121Z,68.50
2018-11-22T05:29:58.567Z,71.37
2018-11-22T05:32:35.316Z,78.03
2018-11-22T05:35:05.626Z,112.73
2018-11-22T05:37:38.969Z,79.20
2018-11-22T05:40:21.103Z,73.00
2018-11-22T05:42:54.453Z,70.53
2018-11-22T05:45:29.248Z,72.67
2018-11-22T05:48:02.569Z,75.17
2018-11-22T05:50:35.881Z,82.30
2018-11-22T05:53:09.377Z,73.17
2018-11-22T05:55:42.908Z,84.37
2018-11-22T05:58:16.180Z,73.63
2018-11-22T06:00:49.520Z,80.53
2018-11-22T06:03:22.894Z,83.43
2018-11-22T06:05:56.276Z,74.17
2018-11-22T06:08:29.774Z,85.40
2018-11-22T06:11:14.172Z,87.73
2018-11-22T06:13:47.568Z,80.47
2018-11-22T06:16:20.892Z,80.00
2018-11-22T06:18:54.159Z,77.97
2018-11-22T06:21:27.429Z,74.13
2018-11-22T06:24:00.767Z,85.40
2018-11-22T06:26:34.038Z,90.13
2018-11-22T06:29:07.773Z,98.47
2018-11-22T06:31:41.180Z,85.47
2018-11-22T06:34:14.606Z,77.07
2018-11-22T06:36:47.978Z,77.27
2018-11-22T06:39:21.290Z,87.40
2018-11-22T06:41:54.705Z,85.53
2018-11-22T06:44:28.076Z,85.47
2018-11-22T06:47:01.707Z,84.27
2018-11-22T06:49:35.134Z,86.23
2018-11-22T06:52:08.841Z,82.23
2018-11-22T06:54:42.204Z,88.17
2018-11-22T06:57:15.709Z,85.47
2018-11-22T06:59:49.244Z,91.03
2018-11-22T07:02:22.925Z,84.80
2018-11-22T07:04:59.209Z,80.77
2018-11-22T07:07:32.615Z,82.30
2018-11-22T07:10:06.591Z,83.43
2018-11-22T07:12:40.193Z,90.67
2018-11-22T07:15:14.413Z,87.47
2018-11-22T07:17:47.719Z,86.50
2018-11-22T07:20:22.421Z,88.00
2018-11-22T07:22:58.141Z,94.87
2018-11-22T07:25:31.473Z,87.27
2018-11-22T07:28:04.860Z,83.00
2018-11-22T07:30:42.406Z,83.27
2018-11-22T07:33:13.086Z,82.07
2018-11-22T07:35:46.522Z,87.10
2018-11-22T07:38:19.901Z,82.27
2018-11-22T07:40:53.211Z,81.63
2018-11-22T07:43:26.496Z,82.23
2018-11-22T07:45:59.909Z,94.23
2018-11-22T07:48:33.341Z,87.60
2018-11-22T07:51:07.106Z,80.37
2018-11-22T07:53:40.527Z,81.97
2018-11-22T07:56:13.897Z,88.30
2018-11-22T07:58:47.171Z,88.00
2018-11-22T08:01:20.549Z,87.87
2018-11-22T08:03:53.816Z,87.40
2018-11-22T08:06:27.163Z,90.80
2018-11-22T08:09:00.835Z,91.47
2018-11-22T08:11:35.048Z,90.67
2018-11-22T08:14:08.570Z,91.13
2018-11-22T08:16:42.407Z,92.77
2018-11-22T08:19:15.667Z,87.30
2018-11-22T08:21:49.117Z,80.80
2018-11-22T08:24:22.385Z,90.20
2018-11-22T08:26:56.112Z,88.53
2018-11-22T08:29:30.394Z,91.60
2018-11-22T08:32:03.747Z,89.83
2018-11-22T08:34:37.648Z,86.97
2018-11-22T08:37:10.965Z,82.30
2018-11-22T08:39:44.299Z,87.23
2018-11-22T08:42:17.620Z,80.83
2018-11-22T08:44:50.936Z,88.23
2018-11-22T08:47:24.278Z,90.47
2018-11-22T08:49:58.408Z,85.13
2018-11-22T08:52:31.755Z,87.53
2018-11-22T08:55:05.332Z,84.60
2018-11-22T08:57:38.940Z,83.97
2018-11-22T09:00:24.152Z,84.23
2018-11-22T09:02:58.854Z,83.87
2018-11-22T09:05:33.850Z,88.27
2018-11-22T09:08:07.227Z,84.13
2018-11-22T09:10:40.685Z,79.07
2018-11-22T09:13:13.972Z,82.20
2018-11-22T09:15:47.395Z,80.97
2018-11-22T09:18:20.687Z,86.40
2018-11-22T09:20:54.131Z,85.10
2018-11-22T09:23:27.509Z,90.87
2018-11-22T09:26:00.852Z,87.07
2018-11-22T09:28:34.176Z,81.00
2018-11-22T09:31:07.594Z,79.20
2018-11-22T09:33:40.976Z,86.93
2018-11-22T09:36:14.310Z,85.03
2018-11-22T09:38:47.676Z,79.83
2018-11-22T09:41:21.040Z,88.00
2018-11-22T09:43:54.308Z,90.67
2018-11-22T09:46:27.808Z,80.80
2018-11-22T09:49:01.128Z,82.97
2018-11-22T09:51:34.588Z,79.10
2018-11-22T09:54:07.941Z,81.90
2018-11-22T09:56:41.257Z,83.10
2018-11-22T09:59:14.757Z,77.63
2018-11-22T10:01:48.186Z,78.93
2018-11-22T10:04:21.507Z,76.33
2018-11-22T10:06:54.847Z,83.40
2018-11-22T10:09:28.123Z,75.67
2018-11-22T10:12:02.636Z,78.93
2018-11-22T10:14:36.028Z,85.70
2018-11-22T10:17:09.426Z,85.70
2018-11-22T10:19:43.739Z,80.80
2018-11-22T10:22:17.339Z,76.03
2018-11-22T10:24:51.594Z,81.50
2018-11-22T10:27:25.931Z,80.87
2018-11-22T10:30:01.114Z,74.77
2018-11-22T10:32:35.316Z,88.93
2018-11-22T10:35:12.234Z,80.00
2018-11-22T10:37:47.372Z,77.40
2018-11-22T10:40:22.627Z,81.73
2018-11-22T10:42:57.186Z,83.67
2018-11-22T10:45:32.066Z,79.37
2018-11-22T10:48:07.791Z,88.13
2018-11-22T12:17:01.275Z,75.63
2018-11-22T12:19:32.804Z,79.20
2018-11-22T12:22:04.350Z,75.23
2018-11-22T12:24:35.858Z,72.67
2018-11-22T12:27:07.381Z,71.23
2018-11-22T12:29:38.777Z,76.80
2018-11-22T12:32:12.067Z,72.90
2018-11-22T12:34:48.813Z,84.90
2018-11-22T12:37:25.432Z,75.50
2018-11-22T12:39:56.950Z,72.87
2018-11-22T12:42:28.583Z,69.80
2018-11-22T12:45:04.018Z,75.40
2018-11-22T12:47:35.479Z,76.73
2018-11-22T12:50:09.688Z,75.93
2018-11-22T12:52:41.166Z,72.43
2018-11-22T12:55:12.710Z,71.80
2018-11-22T12:57:44.253Z,69.07
2018-11-22T13:00:17.080Z,72.43
2018-11-22T13:02:48.780Z,75.40
2018-11-22T13:05:20.767Z,75.27
2018-11-22T13:07:52.262Z,69.37
2018-11-22T13:10:23.987Z,72.50
2018-11-22T13:12:55.514Z,75.07
2018-11-22T13:15:27.278Z,76.40
2018-11-22T13:17:58.993Z,71.50
2018-11-22T13:20:30.629Z,79.80
2018-11-22T13:23:02.208Z,76.67
2018-11-22T13:25:33.762Z,77.87
2018-11-22T13:28:05.651Z,77.47
2018-11-22T13:30:37.197Z,79.27
2018-11-22T13:33:08.692Z,79.07
2018-11-22T13:35:40.401Z,76.33
2018-11-22T13:38:12.095Z,71.80
2018-11-22T13:40:43.826Z,72.63
2018-11-22T13:43:15.254Z,80.90
2018-11-22T13:45:46.868Z,78.67
2018-11-22T13:48:18.357Z,75.47
2018-11-22T13:50:49.891Z,71.03
2018-11-22T13:53:21.434Z,79.07
2018-11-22T13:55:52.875Z,84.03
2018-11-22T13:58:24.473Z,80.20
2018-11-22T14:00:56.059Z,76.20
2018-11-22T14:03:27.573Z,74.77
2018-11-22T14:05:59.053Z,76.80
2018-11-22T14:08:30.457Z,81.10
2018-11-22T14:11:02.014Z,77.17
2018-11-22T14:13:33.429Z,67.67
2018-11-22T14:16:04.879Z,75.40
2018-11-22T14:18:36.299Z,78.00
2018-11-22T14:21:07.792Z,75.63
2018-11-22T14:23:39.232Z,72.60
2018-11-22T14:26:10.758Z,80.87
2018-11-22T14:28:42.212Z,69.87
2018-11-22T14:31:13.830Z,72.70
2018-11-22T14:33:45.339Z,73.97
2018-11-22T14:36:16.829Z,78.83
2018-11-22T14:38:48.380Z,67.17
2018-11-22T14:41:19.811Z,69.67
2018-11-22T14:43:51.285Z,68.93
2018-11-22T14:46:22.857Z,71.20
2018-11-22T14:48:54.306Z,80.97
2018-11-22T14:51:35.500Z,71.40
2018-11-22T14:54:07.408Z,73.90
2018-11-22T14:56:38.968Z,81.47
2018-11-22T14:59:10.398Z,77.53
2018-11-22T15:01:41.885Z,72.17
2018-11-22T15:04:13.330Z,69.13
2018-11-22T15:06:44.849Z,76.43
2018-11-22T15:09:16.389Z,69.03
2018-11-22T15:11:47.815Z,74.70
2018-11-22T15:14:19.299Z,71.63
2018-11-22T15:16:50.792Z,77.07
2018-11-22T15:19:22.205Z,71.17
2018-11-22T15:21:53.640Z,77.83
2018-11-22T15:24:25.116Z,70.80
2018-11-22T15:26:56.819Z,71.87
2018-11-22T15:29:28.384Z,77.80
2018-11-22T15:32:00.060Z,69.00
2018-11-22T15:34:31.628Z,79.30
2018-11-22T15:37:03.052Z,71.67
2018-11-22T15:39:34.521Z,80.37
2018-11-22T15:42:06.092Z,71.10
2018-11-22T15:44:37.498Z,73.63
2018-11-22T15:47:08.990Z,77.73
2018-11-22T15:49:40.410Z,71.80
2018-11-22T15:52:11.968Z,74.43
2018-11-22T15:54:43.660Z,78.50
2018-11-22T15:57:15.201Z,74.23
2018-11-22T15:59:46.716Z,75.37
2018-11-22T16:02:18.163Z,75.90
2018-11-22T16:04:49.646Z,75.47
2018-11-22T16:07:21.082Z,70.27
2018-11-22T16:09:52.667Z,77.50
2018-11-22T16:12:24.162Z,76.40
2018-11-22T16:14:55.670Z,78.37
2018-11-22T16:17:27.150Z,79.63
2018-11-22T16:19:58.786Z,73.77
2018-11-22T16:22:30.899Z,80.57
2018-11-22T16:25:02.409Z,77.00
2018-11-22T16:27:34.002Z,70.83
2018-11-22T16:30:11.174Z,82.80
2018-11-22T16:32:42.696Z,83.57
2018-11-22T16:35:15.732Z,83.63
2018-11-22T16:37:47.483Z,76.50
2018-11-22T16:40:20.379Z,85.67
2018-11-22T16:42:52.598Z,75.30
2018-11-22T16:45:26.408Z,82.90
2018-11-22T16:47:59.347Z,79.97
2018-11-22T16:50:31.890Z,80.33
2018-11-22T16:53:03.311Z,81.77
2018-11-22T16:55:34.838Z,87.10
2018-11-22T16:58:07.393Z,89.33
2018-11-22T17:00:39.903Z,79.60
2018-11-22T17:03:13.664Z,85.03
2018-11-22T17:05:55.233Z,83.83
2018-11-22T17:08:26.736Z,88.13
2018-11-22T17:10:58.169Z,86.87
2018-11-22T17:13:29.669Z,88.17
2018-11-22T17:16:01.129Z,94.47
2018-11-22T17:18:32.642Z,85.37
2018-11-22T17:21:04.304Z,84.53
2018-11-22T17:23:35.726Z,93.87
2018-11-22T17:28:44.197Z,95.80
2018-11-22T17:31:15.599Z,99.43
2018-11-22T17:33:47.090Z,83.57
2018-11-22T17:36:18.572Z,81.63
2018-11-22T17:38:50.062Z,80.93
2018-11-22T17:41:21.676Z,84.17
2018-11-22T17:43:53.126Z,93.43
2018-11-22T17:46:24.712Z,89.50
2018-11-22T17:48:56.214Z,86.47
2018-11-22T17:51:27.753Z,87.53
2018-11-22T17:53:59.272Z,96.87
2018-11-22T17:56:30.804Z,93.23
2018-11-22T17:59:02.347Z,95.80
2018-11-22T18:01:33.897Z,85.93
2018-11-22T18:04:05.567Z,87.37
2018-11-22T18:06:37.170Z,89.53
2018-11-22T18:09:10.950Z,94.90
2018-11-22T18:11:42.492Z,84.90
2018-11-22T18:14:14.038Z,85.10
2018-11-22T18:16:45.485Z,81.77
2018-11-22T18:19:17.175Z,78.87
2018-11-22T18:21:48.747Z,93.03
2018-11-22T18:24:20.603Z,85.73
2018-11-22T18:26:52.210Z,87.67
2018-11-22T18:29:23.713Z,83.87
2018-11-22T18:31:55.263Z,82.93
2018-11-22T18:34:26.722Z,89.17
2018-11-22T18:36:58.263Z,85.43
2018-11-22T18:39:29.719Z,89.73
2018-11-22T18:42:01.218Z,94.70
2018-11-22T18:44:32.815Z,99.73
2018-11-22T18:47:04.452Z,90.77
2018-11-22T18:49:35.916Z,93.20
2018-11-22T18:52:07.436Z,90.50
2018-11-22T18:54:38.952Z,87.13
2018-11-22T18:57:10.474Z,88.90
2018-11-22T18:59:42.141Z,85.60
2018-11-22T19:02:13.638Z,88.07
2018-11-22T19:04:45.080Z,80.83
2018-11-22T19:07:16.530Z,84.47
2018-11-22T19:09:47.989Z,80.53
2018-11-22T19:12:19.750Z,93.23
2018-11-22T19:14:51.366Z,81.40
2018-11-22T19:17:23.749Z,90.57
2018-11-22T19:19:55.363Z,82.87
2018-11-22T19:22:27.347Z,86.27
2018-11-22T19:24:58.801Z,105.43
2018-11-22T19:27:30.638Z,89.33
2018-11-22T19:30:02.166Z,91.13
2018-11-22T19:32:33.644Z,84.27
2018-11-22T19:35:05.246Z,94.80
2018-11-22T19:37:36.898Z,77.73
2018-11-22T19:40:22.107Z,79.57
2018-11-22T19:42:55.044Z,91.50
2018-11-22T19:45:28.397Z,83.87
2018-11-22T19:48:00.158Z,87.10
2018-11-22T19:50:32.321Z,84.53
2018-11-22T19:53:04.996Z,92.77
2018-11-22T19:55:37.415Z,88.40
2018-11-22T19:58:10.782Z,94.00
2018-11-22T20:00:42.661Z,91.87
2018-11-22T20:03:14.181Z,85.50
2018-11-22T20:05:45.696Z,91.87
2018-11-22T20:08:19.205Z,85.23
2018-11-22T20:10:50.822Z,86.23
2018-11-22T20:13:22.428Z,86.70
2018-11-22T20:15:54.048Z,86.07
2018-11-22T20:18:25.560Z,92.10
2018-11-22T20:20:57.064Z,84.20
2018-11-22T20:23:28.605Z,86.53
2018-11-22T20:26:00.146Z,87.03
2018-11-22T20:28:31.705Z,82.00
2018-11-22T20:31:03.251Z,82.40
2018-11-22T20:33:34.830Z,88.57
2018-11-22T20:36:07.194Z,81.03
2018-11-22T20:38:38.765Z,89.27
2018-11-22T20:41:10.686Z,87.67
2018-11-22T20:43:42.316Z,83.03
2018-11-22T20:46:13.876Z,85.33
2018-11-22T20:48:45.605Z,73.13
2018-11-22T20:51:17.219Z,87.77
2018-11-22T20:53:49.065Z,83.20
2018-11-22T20:56:20.716Z,82.27
2018-11-22T20:58:52.312Z,85.40
2018-11-22T21:01:23.837Z,79.93
2018-11-22T21:03:56.590Z,77.67
2018-11-22T21:06:30.070Z,82.90
2018-11-22T21:09:01.550Z,79.70
2018-11-22T21:11:33.367Z,79.47
2018-11-22T21:14:05.824Z,81.53
2018-11-22T21:16:37.321Z,87.00
2018-11-22T21:19:09.181Z,95.27
2018-11-22T21:21:52.498Z,83.10
2018-11-22T21:24:24.028Z,82.40
2018-11-22T21:26:55.517Z,81.67
2018-11-22T21:29:27.344Z,76.83
2018-11-22T21:31:58.952Z,83.27
2018-11-22T21:34:32.493Z,87.57
2018-11-22T21:37:04.369Z,83.27
2018-11-22T21:39:36.005Z,81.40
2018-11-22T21:42:07.548Z,82.87
2018-11-22T21:44:39.177Z,84.57
2018-11-22T21:47:10.616Z,88.03
2018-11-22T21:49:42.073Z,77.77
2018-11-22T21:52:13.641Z,78.73
2018-11-22T21:54:45.331Z,83.97
2018-11-22T21:57:17.111Z,88.27
2018-11-22T21:59:48.748Z,81.20
2018-11-22T22:02:20.386Z,71.97
2018-11-22T22:04:51.951Z,78.53
2018-11-22T22:07:23.628Z,80.03
2018-11-22T22:09:55.751Z,75.37
2018-11-22T22:12:27.318Z,81.60
2018-11-22T22:14:58.922Z,79.83
2018-11-22T22:17:30.476Z,83.67
2018-11-22T22:20:02.008Z,80.73
2018-11-22T22:22:33.474Z,76.37
2018-11-22T22:25:05.470Z,77.47
2018-11-22T22:27:37.510Z,76.20
2018-11-22T22:30:13.115Z,77.27
2018-11-22T22:32:45.652Z,74.40
2018-11-22T22:35:17.286Z,72.53
2018-11-22T22:37:48.841Z,82.73
2018-11-22T22:40:23.414Z,74.37
2018-11-22T22:42:55.892Z,73.60
2018-11-22T22:45:28.555Z,77.40
2018-11-22T22:48:00.207Z,73.47
2018-11-22T22:50:32.383Z,69.43
2018-11-22T22:53:03.952Z,68.93
2018-11-22T22:55:35.361Z,74.13
2018-11-22T22:58:07.008Z,70.87
2018-11-22T23:00:45.830Z,68.27
2018-11-22T23:03:17.909Z,72.17
2018-11-22T23:05:49.440Z,72.90
2018-11-22T23:08:20.878Z,76.43
2018-11-22T23:10:52.485Z,77.03
2018-11-22T23:13:24.109Z,76.77
2018-11-22T23:15:55.643Z,77.67
2018-11-22T23:18:27.181Z,74.73
2018-11-22T23:20:58.649Z,78.07
2018-11-22T23:23:30.222Z,78.50
2018-11-22T23:26:01.755Z,77.90
2018-11-22T23:28:33.272Z,74.40
2018-11-22T23:31:04.771Z,74.00
2018-11-22T23:33:36.340Z,72.37
2018-11-22T23:36:07.723Z,78.13
2018-11-22T23:38:39.322Z,79.80
2018-11-22T23:41:10.859Z,73.43
2018-11-22T23:43:42.461Z,77.83
2018-11-22T23:46:20.448Z,67.60
2018-11-22T23:48:51.935Z,72.63
2018-11-22T23:51:23.443Z,75.50
2018-11-22T23:53:54.875Z,67.23
2018-11-22T23:56:26.290Z,75.87
2018-11-22T23:58:57.747Z,69.77
